Flight Track Log - Related Links

Times and Time Zones

All times are in EDT time to prevent confusion due to time zone crossing. See the UCA596 flight status page for this flight to view local times or setup timezone preferences in your user account.

Time Position Orientation Groundspeed Altitude Reporting Facility
EDT Latitude Longitude Course Direction KTS MPH feet Rate Location/Type
Mon 01:36:23 PM 38.9667 -77.4833 351° North 148 170 1,800  Level Potomac TRACON
Mon 01:38:43 PM 39.0858 -77.5064 351° North 185 213 3,900 1,218 Climbing Washington Center
Mon 01:39:40 PM 39.1461 -77.5106 357° North 192 221 5,800 1,627 Climbing Washington Center
Mon 01:40:41 PM 39.2003 -77.5147 357° North 192 221 7,100 1,279 Climbing Washington Center
Mon 01:41:42 PM 39.2544 -77.5189 357° North 197 227 8,400 1,240 Climbing Washington Center
Mon 01:42:42 PM 39.3106 -77.5231 357° North 197 227 9,600 1,059 Climbing Washington Center
Mon 01:43:41 PM 39.3586 -77.5214 North 197 227 10,500 1,008 Climbing Washington Center
Mon 01:44:41 PM 39.4150 -77.5097 North 197 227 11,600 1,140 Climbing Washington Center
Mon 01:45:42 PM 39.4758 -77.4950 11° North 202 232 12,800 1,168 Climbing Washington Center
Mon 01:47:46 PM 39.6047 -77.4619 11° North 206 237 15,200 1,109 Climbing New York Center
Mon 01:48:46 PM 39.6594 -77.4511 North 206 237 16,200 1,100 Climbing New York Center
Mon 01:49:46 PM 39.7242 -77.4517 360° North 206 237 17,400 850 Climbing New York Center
Mon 01:50:46 PM 39.7764 -77.4514 360° North 211 243 17,900 750 Climbing New York Center
Mon 01:51:46 PM 39.8408 -77.4519 360° North 211 243 18,900 550 Climbing New York Center
Mon 01:52:46 PM 39.8972 -77.4519 360° North 223 257 19,000 50 Climbing New York Center
Mon 01:53:46 PM 39.9744 -77.4486 North 243 280 19,000  Level New York Center
Mon 01:54:46 PM 40.0433 -77.4497 359° North 257 296 19,000  Level New York Center
Mon 01:55:46 PM 40.1269 -77.4442 North 274 315 19,000  Level New York Center
Mon 01:56:46 PM 40.1958 -77.4453 359° North 274 315 19,000  Level New York Center
Mon 01:57:46 PM 40.2792 -77.4453 360° North 274 315 19,000  Level New York Center
Mon 01:58:46 PM 40.3481 -77.4436 North 274 315 19,000  Level New York Center
Mon 01:59:46 PM 40.4314 -77.4436 360° North 274 315 19,000  Level New York Center
Mon 02:00:46 PM 40.4983 -77.4417 North 274 315 19,000 -450 Level New York Center
Mon 02:01:46 PM 40.5858 -77.4419 360° North 274 315 18,100 -800 Descending New York Center
Mon 02:02:46 PM 40.6611 -77.4383 North 279 321 17,400 -550 Descending New York Center
Mon 02:03:46 PM 40.7358 -77.4047 19° North 286 329 17,000 -200 Descending New York Center
Mon 02:04:46 PM 40.8058 -77.3456 33° Northeast 286 329 17,000  Level New York Center
Mon 02:05:46 PM 40.8717 -77.2861 34° Northeast 286 329 17,000  Level New York Center
Mon 02:06:46 PM 40.9394 -77.2294 32° Northeast 286 329 17,000  Level New York Center
Mon 02:07:46 PM 41.0072 -77.1697 34° Northeast 292 336 17,000  Level New York Center
Mon 02:08:46 PM 41.0750 -77.1100 34° Northeast 292 336 17,000  Level New York Center
Mon 02:09:46 PM 41.1428 -77.0503 34° Northeast 292 336 17,000  Level New York Center
Mon 02:10:46 PM 41.2106 -76.9903 34° Northeast 292 336 17,000  Level New York Center
Mon 02:11:46 PM 41.2783 -76.9303 34° Northeast 292 336 17,000  Level New York Center
Mon 02:12:46 PM 41.3461 -76.8700 34° Northeast 292 336 17,000  Level New York Center
Mon 02:13:46 PM 41.4136 -76.8097 34° Northeast 292 336 17,000  Level New York Center
Mon 02:14:46 PM 41.4811 -76.7522 33° Northeast 292 336 17,000 -200 Level New York Center
Mon 02:15:46 PM 41.5533 -76.6839 35° Northeast 298 343 16,600 -650 Descending New York Center
Mon 02:16:46 PM 41.6275 -76.6181 34° Northeast 304 350 15,700 -950 Descending New York Center
Mon 02:17:46 PM 41.6994 -76.5522 34° Northeast 310 357 14,700 -1,000 Descending New York Center
Mon 02:18:46 PM 41.7731 -76.4892 33° Northeast 310 357 13,700 -1,000 Descending New York Center
Mon 02:19:46 PM 41.8450 -76.4256 33° Northeast 315 362 12,700 -1,150 Descending New York Center
Mon 02:20:46 PM 41.9064 -76.3583 39° Northeast 299 344 11,400 -1,600 Descending New York Center
Mon 02:21:46 PM 41.9639 -76.2853 43° Northeast 285 328 9,500 -1,900 Descending New York Center
Mon 02:22:46 PM 42.0214 -76.2147 42° Northeast 273 314 7,600 -2,000 Descending New York Center
Mon 02:23:46 PM 42.0722 -76.1517 43° Northeast 261 300 5,500 -1,900 Descending New York Center
Mon 02:24:46 PM 42.1044 -76.0817 58° Northeast 234 269 3,800 -1,300 Descending New York Center
Mon 02:25:46 PM 42.1322 -76.0197 59° Northeast 206 237 2,900 -600 Descending New York Center
Mon 02:26:46 PM 42.1550 -75.9711 58° Northeast 173 199 2,600 -500 Descending New York Center
Mon 02:27:46 PM 42.1867 -75.9622 12° North 124 143 1,900 3,200 Descending New York Center
Mon 02:28:46 PM 42.2131 -75.9336 39° Northeast 124 143 9,000 3,550 Climbing New York Center
Mon 02:29:46 PM 42.2389 -75.9078 37° Northeast 124 143 9,000  Level New York Center
Mon 02:30:46 PM 42.2672 -75.8819 34° Northeast 124 143 9,000  Level New York Center
Mon 02:32:00 PM 42.2148 -75.9691 North  Level Estimated

Login

Don't have an account? Register now (free) for customized features, flight alerts, and more!